Patterson, Iowa
Current Conditions -  °F | °C
As of 10:54 PM on Saturday 25 Oct 2014 (Local Time) from KDSM Reporting Station
Clear Clear  
Wind Chill: 54°   Ceiling: Unl
Heat Index: 54°   Visibility: 10mi
Dew Point: 39°   Wind: 0mph
Humidity: 57%   Direction: NA
Pressure: 30.07"   Gusts: NA
Location:  41.35°N, 93.88°W
Report Text: KDSM 260354Z 00000KT 10SM CLR 12/04 A3007 RMK AO2 SLP182 T01220039
Loading
Personal Weather Stations






























Interactive Weather Map
Tropical Storm Tracking
New forecast layout! Learn more

10-Day Weather Forecast

Advertisements
Track Severe Weather on mobile